Terminal Aerodrome Forecast
Issued by NWS

Home | Current Version | Previous Version | Graphics & Text | Print | Product List | Glossary On
Versions: 1 2 3 4 5 6 7 8 9 10 11 12 13 14 15 16
000
FTUS43 KICT 260328 AAA
TAFHUT
TAF AMD
KHUT 260328Z 2603/2624 01023G30KT P6SM BKN020 OVC050
     FM261200 01016G25KT P6SM BKN250
     FM262100 01010KT P6SM BKN250=

USA.gov is the U.S. government's official web portal to all federal, state and local government web resources and services.